Wetterdaten: Woche 08.06.15 - 14.06.15 (KW24)
Datum Zeit Temp. A. Feuchte A. Luftdruck Regen Wind Richtung Sonnenschein ET UV Solar Taupunkt Windchill Windben
08.06.2015 00:00 15,4 C 88 % 1023,3 hPa 0,0 l/m 2,3 km/h (1 Bft) N 0,00 h 0,000 mm 0,0 UV-I 0 W/m 13,4 C 15,4 C 7,2 km/h (2 Bft)
08.06.2015 01:00 14,6 C 90 % 1023,1 hPa 0,0 l/m 2,5 km/h (1 Bft) N 0,00 h 0,000 mm 0,0 UV-I 0 W/m 12,9 C 14,5 C 6,5 km/h (2 Bft)
08.06.2015 02:00 14,0 C 91 % 1023,0 hPa 0,0 l/m 2,9 km/h (1 Bft) N 0,00 h 0,000 mm 0,0 UV-I 0 W/m 12,6 C 13,9 C 7,2 km/h (2 Bft)
08.06.2015 03:00 14,0 C 91 % 1022,7 hPa 0,0 l/m 1,0 km/h (0 Bft) N 0,00 h 0,000 mm 0,0 UV-I 0 W/m 12,5 C 14,0 C 3,7 km/h (1 Bft)
08.06.2015 04:00 14,2 C 89 % 1022,6 hPa 0,0 l/m 1,6 km/h (1 Bft) N 0,00 h 0,000 mm 0,0 UV-I 0 W/m 12,5 C 14,2 C 5,0 km/h (1 Bft)
08.06.2015 05:00 13,9 C 88 % 1022,5 hPa 0,0 l/m 4,1 km/h (1 Bft) N 0,00 h 0,000 mm 0,0 UV-I 18 W/m 11,9 C 13,6 C 9,1 km/h (2 Bft)
08.06.2015 06:00 13,9 C 84 % 1022,2 hPa 0,0 l/m 5,6 km/h (2 Bft) N 0,85 h 0,025 mm 0,0 UV-I 61 W/m 11,2 C 13,4 C 11,5 km/h (2 Bft)
08.06.2015 07:00 14,0 C 81 % 1022,0 hPa 0,0 l/m 4,7 km/h (1 Bft) N-NO 0,90 h 0,051 mm 0,6 UV-I 68 W/m 10,7 C 13,7 C 10,5 km/h (2 Bft)
08.06.2015 08:00 15,0 C 77 % 1022,3 hPa 0,0 l/m 3,6 km/h (1 Bft) N 1,00 h 0,051 mm 0,9 UV-I 182 W/m 11,0 C 14,9 C 8,5 km/h (2 Bft)
08.06.2015 09:00 15,6 C 76 % 1022,4 hPa 0,0 l/m 4,1 km/h (1 Bft) N 0,80 h 0,102 mm 1,1 UV-I 133 W/m 11,4 C 15,3 C 9,7 km/h (2 Bft)
08.06.2015 10:00 13,9 C 88 % 1023,0 hPa 3,6 l/m 0,7 km/h (0 Bft) N 0,00 h 0,076 mm 0,0 UV-I 34 W/m 11,9 C 13,9 C 2,5 km/h (1 Bft)
08.06.2015 11:00 13,1 C 94 % 1022,9 hPa 3,4 l/m 3,7 km/h (1 Bft) N 0,07 h 0,025 mm 0,5 UV-I 40 W/m 12,2 C 12,3 C 6,7 km/h (2 Bft)
08.06.2015 12:00 14,4 C 92 % 1021,8 hPa 0,6 l/m 5,2 km/h (1 Bft) N 1,00 h 0,025 mm 3,3 UV-I 399 W/m 13,1 C 13,5 C 10,9 km/h (2 Bft)
08.06.2015 13:00 16,1 C 86 % 1021,6 hPa 0,0 l/m 5,9 km/h (2 Bft) N-NO 1,00 h 0,229 mm 3,8 UV-I 464 W/m 13,7 C 15,4 C 13,4 km/h (3 Bft)
08.06.2015 14:00 16,5 C 77 % 1021,4 hPa 0,0 l/m 8,9 km/h (2 Bft) N-NO 1,00 h 0,254 mm 2,5 UV-I 302 W/m 12,5 C 15,2 C 17,0 km/h (3 Bft)
08.06.2015 15:00 15,8 C 79 % 1021,3 hPa 0,0 l/m 5,4 km/h (2 Bft) N-NO 0,77 h 0,178 mm 1,2 UV-I 106 W/m 12,1 C 15,4 C 12,1 km/h (2 Bft)
08.06.2015 16:00 14,3 C 88 % 1021,1 hPa 0,6 l/m 6,0 km/h (2 Bft) N-NO 0,92 h 0,076 mm 0,5 UV-I 58 W/m 12,4 C 13,7 C 12,8 km/h (3 Bft)
08.06.2015 17:00 13,5 C 93 % 1020,7 hPa 1,6 l/m 5,8 km/h (2 Bft) N 0,80 h 0,051 mm 0,5 UV-I 65 W/m 12,4 C 12,8 C 11,1 km/h (2 Bft)
08.06.2015 18:00 12,8 C 94 % 1020,6 hPa 0,4 l/m 4,2 km/h (1 Bft) N 0,18 h 0,025 mm 0,0 UV-I 40 W/m 11,9 C 12,6 C 9,4 km/h (2 Bft)
08.06.2015 19:00 12,5 C 94 % 1020,7 hPa 0,2 l/m 6,6 km/h (2 Bft) N 0,13 h 0,025 mm 0,0 UV-I 30 W/m 11,6 C 11,4 C 12,6 km/h (2 Bft)
08.06.2015 20:00 11,4 C 94 % 1021,1 hPa 0,0 l/m 6,4 km/h (2 Bft) N 0,00 h 0,025 mm 0,0 UV-I 10 W/m 10,4 C 10,3 C 12,4 km/h (2 Bft)
08.06.2015 21:00 11,0 C 95 % 1021,4 hPa 1,0 l/m 7,6 km/h (2 Bft) N-NO 0,00 h 0,000 mm 0,0 UV-I 0 W/m 10,2 C 9,5 C 14,0 km/h (3 Bft)
08.06.2015 22:00 10,9 C 95 % 1021,7 hPa 0,4 l/m 7,0 km/h (2 Bft) N 0,00 h 0,000 mm 0,0 UV-I 0 W/m 10,1 C 9,9 C 13,3 km/h (3 Bft)
08.06.2015 23:00 10,9 C 95 % 1021,8 hPa 0,2 l/m 6,2 km/h (2 Bft) N 0,00 h 0,000 mm 0,0 UV-I 0 W/m 10,2 C 10,2 C 11,6 km/h (2 Bft)
09.06.2015 00:00 11,0 C 96 % 1022,1 hPa 0,6 l/m 5,6 km/h (2 Bft) N 0,00 h 0,000 mm 0,0 UV-I 0 W/m 10,4 C 10,6 C 11,6 km/h (2 Bft)
09.06.2015 01:00 11,0 C 96 % 1021,8 hPa 0,8 l/m 4,3 km/h (1 Bft) N 0,00 h 0,000 mm 0,0 UV-I 0 W/m 10,4 C 10,9 C 10,3 km/h (2 Bft)
09.06.2015 02:00 11,0 C 96 % 1021,5 hPa 0,4 l/m 4,8 km/h (1 Bft) N 0,00 h 0,000 mm 0,0 UV-I 0 W/m 10,4 C 10,7 C 10,6 km/h (2 Bft)
09.06.2015 03:00 10,7 C 96 % 1021,3 hPa 0,8 l/m 6,0 km/h (2 Bft) N 0,00 h 0,000 mm 0,0 UV-I 0 W/m 10,1 C 10,0 C 13,0 km/h (3 Bft)
09.06.2015 04:00 10,5 C 96 % 1021,3 hPa 1,0 l/m 5,1 km/h (1 Bft) N 0,00 h 0,000 mm 0,0 UV-I 0 W/m 9,9 C 10,1 C 11,0 km/h (2 Bft)
09.06.2015 05:00 10,3 C 96 % 1021,4 hPa 0,0 l/m 6,3 km/h (2 Bft) N 0,00 h 0,000 mm 0,0 UV-I 0 W/m 9,6 C 9,5 C 12,2 km/h (2 Bft)
09.06.2015 06:00 10,2 C 96 % 1021,8 hPa 0,0 l/m 4,6 km/h (1 Bft) N 0,00 h 0,000 mm 0,0 UV-I 9 W/m 9,6 C 9,9 C 10,3 km/h (2 Bft)
09.06.2015 07:00 10,2 C 96 % 1022,2 hPa 0,0 l/m 5,9 km/h (2 Bft) N-NO 0,00 h 0,000 mm 0,0 UV-I 20 W/m 9,6 C 9,5 C 12,6 km/h (3 Bft)
09.06.2015 08:00 10,3 C 96 % 1022,5 hPa 0,0 l/m 7,9 km/h (2 Bft) N-NO 0,40 h 0,000 mm 0,6 UV-I 49 W/m 9,6 C 8,8 C 14,9 km/h (3 Bft)
09.06.2015 09:00 10,6 C 94 % 1022,7 hPa 0,0 l/m 7,7 km/h (2 Bft) N-NO 1,00 h 0,025 mm 0,7 UV-I 91 W/m 9,8 C 9,2 C 15,8 km/h (3 Bft)
09.06.2015 10:00 11,2 C 93 % 1023,1 hPa 0,0 l/m 5,9 km/h (2 Bft) N-NO 1,00 h 0,051 mm 1,2 UV-I 155 W/m 10,0 C 10,4 C 12,5 km/h (2 Bft)
09.06.2015 11:00 11,4 C 91 % 1023,4 hPa 0,0 l/m 6,1 km/h (2 Bft) N 1,00 h 0,076 mm 1,2 UV-I 135 W/m 9,9 C 10,7 C 12,9 km/h (3 Bft)
09.06.2015 12:00 11,7 C 90 % 1023,6 hPa 0,0 l/m 8,6 km/h (2 Bft) N-NO 1,00 h 0,076 mm 1,9 UV-I 201 W/m 10,1 C 9,9 C 16,6 km/h (3 Bft)
09.06.2015 13:00 12,7 C 86 % 1023,7 hPa 0,0 l/m 10,3 km/h (2 Bft) N-NO 1,00 h 0,102 mm 2,9 UV-I 314 W/m 10,4 C 10,5 C 18,6 km/h (3 Bft)
09.06.2015 14:00 12,0 C 87 % 1023,9 hPa 0,0 l/m 8,5 km/h (2 Bft) N 1,00 h 0,178 mm 1,4 UV-I 146 W/m 9,9 C 10,4 C 15,5 km/h (3 Bft)
09.06.2015 15:00 12,2 C 87 % 1024,0 hPa 0,0 l/m 5,8 km/h (2 Bft) N 1,00 h 0,076 mm 1,3 UV-I 157 W/m 10,1 C 11,5 C 12,5 km/h (2 Bft)
09.06.2015 16:00 12,4 C 86 % 1024,0 hPa 0,0 l/m 6,4 km/h (2 Bft) N-NO 1,00 h 0,076 mm 1,0 UV-I 122 W/m 10,1 C 11,5 C 13,6 km/h (3 Bft)
09.06.2015 17:00 12,0 C 87 % 1024,0 hPa 0,0 l/m 4,2 km/h (1 Bft) N-NO 1,00 h 0,076 mm 0,6 UV-I 82 W/m 9,9 C 11,7 C 9,9 km/h (2 Bft)
09.06.2015 18:00 11,9 C 88 % 1024,0 hPa 0,0 l/m 4,8 km/h (1 Bft) N-NO 1,00 h 0,051 mm 0,5 UV-I 79 W/m 9,9 C 11,5 C 10,8 km/h (2 Bft)
09.06.2015 19:00 11,6 C 88 % 1024,3 hPa 0,0 l/m 4,8 km/h (1 Bft) N-NO 0,15 h 0,051 mm 0,0 UV-I 36 W/m 9,6 C 11,2 C 11,6 km/h (2 Bft)
09.06.2015 20:00 11,3 C 88 % 1024,8 hPa 0,0 l/m 1,3 km/h (1 Bft) N-NO 0,00 h 0,025 mm 0,0 UV-I 11 W/m 9,4 C 11,2 C 4,6 km/h (1 Bft)
09.06.2015 21:00 11,1 C 89 % 1025,3 hPa 0,0 l/m 1,3 km/h (1 Bft) N-NO 0,00 h 0,001 mm 0,0 UV-I 0 W/m 9,3 C 11,1 C 5,2 km/h (1 Bft)
09.06.2015 22:00 10,9 C 90 % 1025,6 hPa 0,0 l/m 0,4 km/h (0 Bft) N 0,00 h 0,000 mm 0,0 UV-I 0 W/m 9,4 C 10,9 C 2,1 km/h (1 Bft)
09.06.2015 23:00 10,8 C 91 % 1025,5 hPa 0,0 l/m 0,6 km/h (0 Bft) N 0,00 h 0,000 mm 0,0 UV-I 0 W/m 9,4 C 10,8 C 2,9 km/h (1 Bft)
10.06.2015 00:00 10,7 C 90 % 1025,4 hPa 0,0 l/m 0,9 km/h (0 Bft) N 0,00 h 0,000 mm 0,0 UV-I 0 W/m 9,1 C 10,6 C 3,7 km/h (1 Bft)
10.06.2015 01:00 10,6 C 91 % 1025,2 hPa 0,0 l/m 0,5 km/h (0 Bft) N 0,00 h 0,000 mm 0,0 UV-I 0 W/m 9,2 C 10,6 C 2,4 km/h (1 Bft)
10.06.2015 02:00 10,6 C 91 % 1024,9 hPa 0,0 l/m 0,6 km/h (0 Bft) N 0,00 h 0,000 mm 0,0 UV-I 0 W/m 9,2 C 10,6 C 2,4 km/h (1 Bft)
10.06.2015 03:00 10,5 C 92 % 1024,3 hPa 0,0 l/m 1,6 km/h (1 Bft) N 0,00 h 0,000 mm 0,0 UV-I 0 W/m 9,2 C 10,4 C 5,9 km/h (2 Bft)
10.06.2015 04:00 10,3 C 92 % 1024,1 hPa 0,0 l/m 1,5 km/h (1 Bft) N 0,00 h 0,000 mm 0,0 UV-I 0 W/m 9,1 C 10,3 C 5,0 km/h (1 Bft)
10.06.2015 05:00 10,2 C 92 % 1024,3 hPa 0,0 l/m 0,4 km/h (0 Bft) N 0,00 h 0,000 mm 0,0 UV-I 19 W/m 8,9 C 10,2 C 1,9 km/h (1 Bft)
10.06.2015 06:00 10,3 C 91 % 1024,6 hPa 0,0 l/m 1,1 km/h (1 Bft) N-NO 0,70 h 0,000 mm 0,0 UV-I 54 W/m 9,0 C 10,3 C 4,5 km/h (1 Bft)
10.06.2015 07:00 11,0 C 90 % 1024,8 hPa 0,0 l/m 2,9 km/h (1 Bft) O-NO 1,00 h 0,025 mm 0,6 UV-I 83 W/m 9,4 C 10,8 C 8,3 km/h (2 Bft)
10.06.2015 08:00 11,8 C 88 % 1024,8 hPa 0,0 l/m 2,0 km/h (1 Bft) O-NO 1,00 h 0,051 mm 0,9 UV-I 141 W/m 9,9 C 11,8 C 6,6 km/h (2 Bft)
10.06.2015 09:00 13,1 C 84 % 1024,7 hPa 0,0 l/m 3,0 km/h (1 Bft) O-NO 1,00 h 0,076 mm 1,9 UV-I 272 W/m 10,4 C 13,0 C 8,5 km/h (2 Bft)
10.06.2015 10:00 13,8 C 81 % 1024,6 hPa 0,0 l/m 1,9 km/h (1 Bft) O 1,00 h 0,152 mm 2,2 UV-I 283 W/m 10,6 C 13,8 C 6,1 km/h (2 Bft)
10.06.2015 11:00 14,8 C 79 % 1024,8 hPa 0,0 l/m 2,9 km/h (1 Bft) O 1,00 h 0,152 mm 2,9 UV-I 344 W/m 11,2 C 14,6 C 8,0 km/h (2 Bft)
10.06.2015 12:00 16,1 C 76 % 1024,6 hPa 0,0 l/m 3,9 km/h (1 Bft) O-NO 1,00 h 0,178 mm 4,5 UV-I 516 W/m 11,9 C 15,9 C 10,8 km/h (2 Bft)
10.06.2015 13:00 17,6 C 73 % 1024,0 hPa 0,0 l/m 3,6 km/h (1 Bft) O-NO 1,00 h 0,279 mm 5,0 UV-I 575 W/m 12,8 C 17,5 C 9,1 km/h (2 Bft)
10.06.2015 14:00 18,7 C 70 % 1023,6 hPa 0,0 l/m 4,3 km/h (1 Bft) O-NO 1,00 h 0,330 mm 5,4 UV-I 628 W/m 13,0 C 18,4 C 10,1 km/h (2 Bft)
10.06.2015 15:00 19,0 C 66 % 1023,2 hPa 0,0 l/m 4,2 km/h (1 Bft) O 1,00 h 0,381 mm 5,2 UV-I 787 W/m 12,5 C 18,8 C 11,4 km/h (2 Bft)
10.06.2015 16:00 18,7 C 65 % 1023,1 hPa 0,0 l/m 4,1 km/h (1 Bft) O 1,00 h 0,432 mm 3,4 UV-I 556 W/m 12,1 C 18,5 C 11,6 km/h (2 Bft)
10.06.2015 17:00 17,4 C 69 % 1022,7 hPa 0,0 l/m 4,8 km/h (1 Bft) O-NO 1,00 h 0,330 mm 1,5 UV-I 224 W/m 11,8 C 17,0 C 11,4 km/h (2 Bft)
10.06.2015 18:00 16,8 C 71 % 1022,4 hPa 0,0 l/m 3,3 km/h (1 Bft) O-NO 1,00 h 0,152 mm 1,0 UV-I 133 W/m 11,6 C 16,7 C 9,1 km/h (2 Bft)
10.06.2015 19:00 16,3 C 72 % 1022,3 hPa 0,0 l/m 2,1 km/h (1 Bft) O-NO 0,78 h 0,076 mm 0,6 UV-I 68 W/m 11,2 C 16,2 C 5,8 km/h (2 Bft)
10.06.2015 20:00 15,7 C 74 % 1022,3 hPa 0,0 l/m 0,3 km/h (0 Bft) N 0,03 h 0,051 mm 0,0 UV-I 23 W/m 11,1 C 15,7 C 1,7 km/h (1 Bft)
10.06.2015 21:00 15,1 C 77 % 1022,7 hPa 0,0 l/m 0,0 km/h (0 Bft) N 0,00 h 0,025 mm 0,0 UV-I 5 W/m 11,1 C 15,1 C 0,3 km/h (0 Bft)
10.06.2015 22:00 14,7 C 80 % 1023,0 hPa 0,0 l/m 0,0 km/h (0 Bft) N 0,00 h 0,000 mm 0,0 UV-I 0 W/m 11,3 C 14,7 C 0,0 km/h (0 Bft)
10.06.2015 23:00 14,6 C 80 % 1023,1 hPa 0,0 l/m 0,0 km/h (0 Bft) N 0,00 h 0,025 mm 0,0 UV-I 0 W/m 11,2 C 14,6 C 0,3 km/h (0 Bft)
11.06.2015 00:00 14,4 C 81 % 1022,8 hPa 0,0 l/m 0,1 km/h (0 Bft) N 0,00 h 0,025 mm 0,0 UV-I 0 W/m 11,2 C 14,4 C 0,9 km/h (0 Bft)
11.06.2015 01:00 14,2 C 81 % 1022,3 hPa 0,0 l/m 0,1 km/h (0 Bft) N 0,00 h 0,025 mm 0,0 UV-I 0 W/m 11,1 C 14,2 C 0,4 km/h (0 Bft)
11.06.2015 02:00 14,2 C 80 % 1021,7 hPa 0,0 l/m 1,3 km/h (1 Bft) N 0,00 h 0,025 mm 0,0 UV-I 0 W/m 10,7 C 14,2 C 3,7 km/h (1 Bft)
11.06.2015 03:00 14,0 C 80 % 1021,5 hPa 0,0 l/m 1,0 km/h (0 Bft) N 0,00 h 0,025 mm 0,0 UV-I 0 W/m 10,7 C 14,0 C 2,8 km/h (1 Bft)
11.06.2015 04:00 13,8 C 82 % 1021,4 hPa 0,0 l/m 0,7 km/h (0 Bft) N 0,00 h 0,000 mm 0,0 UV-I 0 W/m 10,7 C 13,8 C 2,4 km/h (1 Bft)
11.06.2015 05:00 13,7 C 81 % 1021,1 hPa 0,0 l/m 0,5 km/h (0 Bft) N 0,00 h 0,000 mm 0,0 UV-I 13 W/m 10,4 C 13,7 C 1,3 km/h (1 Bft)
11.06.2015 06:00 14,0 C 81 % 1020,9 hPa 0,0 l/m 0,4 km/h (0 Bft) N 0,40 h 0,000 mm 0,0 UV-I 49 W/m 10,8 C 14,0 C 1,6 km/h (1 Bft)
11.06.2015 07:00 14,5 C 82 % 1020,8 hPa 0,0 l/m 1,4 km/h (1 Bft) O-NO 1,00 h 0,025 mm 0,6 UV-I 76 W/m 11,4 C 14,4 C 4,1 km/h (1 Bft)
11.06.2015 08:00 15,1 C 81 % 1020,7 hPa 0,0 l/m 4,0 km/h (1 Bft) O-NO 1,00 h 0,051 mm 0,9 UV-I 150 W/m 11,9 C 14,9 C 8,7 km/h (2 Bft)
11.06.2015 09:00 16,0 C 79 % 1020,6 hPa 0,0 l/m 4,8 km/h (1 Bft) O-NO 1,00 h 0,076 mm 1,8 UV-I 248 W/m 12,3 C 15,8 C 10,2 km/h (2 Bft)
11.06.2015 10:00 17,3 C 74 % 1020,4 hPa 0,0 l/m 3,7 km/h (1 Bft) O-NO 1,00 h 0,152 mm 2,6 UV-I 351 W/m 12,6 C 17,2 C 9,0 km/h (2 Bft)
11.06.2015 11:00 17,6 C 70 % 1020,3 hPa 0,0 l/m 6,4 km/h (2 Bft) SO 1,00 h 0,203 mm 3,2 UV-I 372 W/m 12,2 C 17,1 C 13,2 km/h (3 Bft)
11.06.2015 12:00 18,3 C 68 % 1020,0 hPa 0,0 l/m 4,0 km/h (1 Bft) SO 1,00 h 0,229 mm 3,7 UV-I 439 W/m 12,3 C 18,1 C 9,7 km/h (2 Bft)
11.06.2015 13:00 18,5 C 69 % 1019,7 hPa 0,0 l/m 2,7 km/h (1 Bft) O 1,00 h 0,254 mm 3,5 UV-I 406 W/m 12,8 C 18,5 C 7,3 km/h (2 Bft)
11.06.2015 14:00 19,0 C 68 % 1019,2 hPa 0,0 l/m 2,2 km/h (1 Bft) O 1,00 h 0,254 mm 3,5 UV-I 437 W/m 12,9 C 19,0 C 6,5 km/h (2 Bft)
11.06.2015 15:00 19,6 C 68 % 1018,7 hPa 0,0 l/m 3,0 km/h (1 Bft) O-NO 1,00 h 0,254 mm 3,0 UV-I 413 W/m 13,4 C 19,6 C 7,3 km/h (2 Bft)
11.06.2015 16:00 20,6 C 66 % 1017,8 hPa 0,0 l/m 2,1 km/h (1 Bft) O 1,00 h 0,254 mm 2,9 UV-I 518 W/m 14,0 C 20,5 C 5,8 km/h (2 Bft)
11.06.2015 17:00 20,2 C 67 % 1017,1 hPa 0,0 l/m 2,4 km/h (1 Bft) O-NO 1,00 h 0,305 mm 1,6 UV-I 235 W/m 13,9 C 20,2 C 6,3 km/h (2 Bft)
11.06.2015 18:00 19,6 C 68 % 1016,6 hPa 0,0 l/m 1,7 km/h (1 Bft) N 1,00 h 0,152 mm 0,9 UV-I 94 W/m 13,5 C 19,6 C 5,1 km/h (1 Bft)
11.06.2015 19:00 18,9 C 71 % 1016,4 hPa 0,0 l/m 0,2 km/h (0 Bft) N 0,55 h 0,076 mm 0,5 UV-I 53 W/m 13,5 C 18,9 C 1,5 km/h (1 Bft)
11.06.2015 20:00 18,3 C 74 % 1016,3 hPa 0,0 l/m 0,2 km/h (0 Bft) N 0,15 h 0,025 mm 0,0 UV-I 27 W/m 13,5 C 18,3 C 1,1 km/h (1 Bft)
11.06.2015 21:00 16,7 C 80 % 1016,3 hPa 0,0 l/m 0,9 km/h (0 Bft) O-NO 0,00 h 0,025 mm 0,0 UV-I 5 W/m 13,2 C 16,7 C 3,5 km/h (1 Bft)
11.06.2015 22:00 15,8 C 82 % 1016,2 hPa 0,0 l/m 3,1 km/h (1 Bft) O 0,00 h 0,000 mm 0,0 UV-I 0 W/m 12,7 C 15,8 C 7,5 km/h (2 Bft)
11.06.2015 23:00 15,6 C 82 % 1016,0 hPa 0,0 l/m 1,5 km/h (1 Bft) O-NO 0,00 h 0,025 mm 0,0 UV-I 0 W/m 12,5 C 15,6 C 4,2 km/h (1 Bft)
12.06.2015 00:00 15,9 C 80 % 1015,6 hPa 0,0 l/m 1,9 km/h (1 Bft) O-NO 0,00 h 0,025 mm 0,0 UV-I 0 W/m 12,4 C 15,9 C 4,7 km/h (1 Bft)
12.06.2015 01:00 15,7 C 80 % 1015,0 hPa 0,0 l/m 2,5 km/h (1 Bft) O-NO 0,00 h 0,025 mm 0,0 UV-I 0 W/m 12,3 C 15,6 C 6,6 km/h (2 Bft)
12.06.2015 02:00 15,6 C 81 % 1014,4 hPa 0,0 l/m 0,5 km/h (0 Bft) N 0,00 h 0,025 mm 0,0 UV-I 0 W/m 12,3 C 15,6 C 1,8 km/h (1 Bft)
12.06.2015 03:00 15,1 C 83 % 1013,9 hPa 0,0 l/m 2,3 km/h (1 Bft) O-NO 0,00 h 0,025 mm 0,0 UV-I 0 W/m 12,1 C 15,1 C 6,0 km/h (2 Bft)
12.06.2015 04:00 14,5 C 84 % 1013,5 hPa 0,0 l/m 1,5 km/h (1 Bft) NO 0,00 h 0,000 mm 0,0 UV-I 0 W/m 11,9 C 14,5 C 3,6 km/h (1 Bft)
12.06.2015 05:00 14,2 C 84 % 1013,5 hPa 0,0 l/m 2,9 km/h (1 Bft) O-NO 0,00 h 0,000 mm 0,0 UV-I 16 W/m 11,6 C 14,2 C 6,1 km/h (2 Bft)
12.06.2015 06:00 14,8 C 83 % 1013,7 hPa 0,0 l/m 2,3 km/h (1 Bft) O-NO 0,30 h 0,025 mm 0,5 UV-I 48 W/m 12,0 C 14,8 C 5,3 km/h (1 Bft)
12.06.2015 07:00 15,9 C 81 % 1013,6 hPa 0,0 l/m 0,5 km/h (0 Bft) N 1,00 h 0,025 mm 0,7 UV-I 131 W/m 12,6 C 15,9 C 1,5 km/h (1 Bft)
12.06.2015 08:00 17,9 C 76 % 1013,5 hPa 0,0 l/m 0,0 km/h (0 Bft) N 1,00 h 0,076 mm 1,7 UV-I 377 W/m 13,6 C 17,9 C 0,5 km/h (0 Bft)
12.06.2015 09:00 20,5 C 71 % 1013,3 hPa 0,0 l/m 0,3 km/h (0 Bft) N 1,00 h 0,203 mm 2,5 UV-I 545 W/m 15,1 C 20,5 C 1,0 km/h (0 Bft)
12.06.2015 10:00 22,2 C 70 % 1012,7 hPa 0,0 l/m 0,9 km/h (0 Bft) N 1,00 h 0,305 mm 3,3 UV-I 628 W/m 16,4 C 22,2 C 2,4 km/h (1 Bft)
12.06.2015 11:00 23,3 C 68 % 1012,3 hPa 0,0 l/m 1,1 km/h (1 Bft) N 1,00 h 0,457 mm 4,8 UV-I 637 W/m 17,1 C 23,3 C 3,4 km/h (1 Bft)
12.06.2015 12:00 24,8 C 63 % 1012,1 hPa 0,0 l/m 3,7 km/h (1 Bft) SW 1,00 h 0,381 mm 6,3 UV-I 868 W/m 17,3 C 24,7 C 7,7 km/h (2 Bft)
12.06.2015 13:00 25,7 C 59 % 1011,7 hPa 0,0 l/m 3,8 km/h (1 Bft) S 1,00 h 0,533 mm 6,5 UV-I 844 W/m 17,1 C 25,6 C 7,7 km/h (2 Bft)
12.06.2015 14:00 26,5 C 55 % 1011,2 hPa 0,0 l/m 3,3 km/h (1 Bft) S-SO 1,00 h 0,559 mm 5,6 UV-I 781 W/m 16,6 C 26,4 C 6,3 km/h (2 Bft)
12.06.2015 15:00 26,3 C 54 % 1010,7 hPa 0,0 l/m 2,5 km/h (1 Bft) N 1,00 h 0,508 mm 3,9 UV-I 458 W/m 16,1 C 26,2 C 5,1 km/h (1 Bft)
12.06.2015 16:00 27,3 C 50 % 1010,2 hPa 0,0 l/m 2,7 km/h (1 Bft) SW 1,00 h 0,330 mm 3,3 UV-I 650 W/m 16,1 C 27,3 C 5,5 km/h (2 Bft)
12.06.2015 17:00 26,8 C 48 % 1009,7 hPa 0,0 l/m 1,8 km/h (1 Bft) N 1,00 h 0,432 mm 1,8 UV-I 339 W/m 14,9 C 26,8 C 3,6 km/h (1 Bft)
12.06.2015 18:00 26,6 C 47 % 1009,3 hPa 0,0 l/m 2,6 km/h (1 Bft) W-SW 1,00 h 0,229 mm 0,9 UV-I 85 W/m 14,3 C 26,6 C 6,4 km/h (2 Bft)
12.06.2015 19:00 25,8 C 49 % 1008,9 hPa 0,0 l/m 1,5 km/h (1 Bft) W 0,40 h 0,102 mm 0,0 UV-I 45 W/m 14,4 C 25,8 C 4,1 km/h (1 Bft)
12.06.2015 20:00 24,5 C 56 % 1008,9 hPa 0,0 l/m 0,2 km/h (0 Bft) N 0,00 h 0,051 mm 0,0 UV-I 15 W/m 15,0 C 24,5 C 0,6 km/h (0 Bft)
12.06.2015 21:00 21,6 C 71 % 1009,1 hPa 0,0 l/m 0,0 km/h (0 Bft) N 0,00 h 0,025 mm 0,0 UV-I 0 W/m 16,0 C 21,6 C 0,0 km/h (0 Bft)
12.06.2015 22:00 19,6 C 80 % 1009,4 hPa 0,0 l/m 0,0 km/h (0 Bft) N 0,00 h 0,000 mm 0,0 UV-I 0 W/m 16,1 C 19,6 C 0,0 km/h (0 Bft)
12.06.2015 23:00 18,4 C 85 % 1009,6 hPa 0,0 l/m 0,0 km/h (0 Bft) N 0,00 h 0,025 mm 0,0 UV-I 0 W/m 15,7 C 18,4 C 0,0 km/h (0 Bft)
13.06.2015 00:00 17,1 C 88 % 1009,5 hPa 0,0 l/m 0,0 km/h (0 Bft) N 0,00 h 0,025 mm 0,0 UV-I 0 W/m 15,1 C 17,1 C 0,0 km/h (0 Bft)
13.06.2015 01:00 16,1 C 91 % 1009,4 hPa 0,0 l/m 0,0 km/h (0 Bft) N 0,00 h 0,000 mm 0,0 UV-I 0 W/m 14,6 C 16,1 C 0,0 km/h (0 Bft)
13.06.2015 02:00 15,5 C 93 % 1009,2 hPa 0,0 l/m 0,0 km/h (0 Bft) N 0,00 h 0,000 mm 0,0 UV-I 0 W/m 14,3 C 15,5 C 0,0 km/h (0 Bft)
13.06.2015 03:00 14,9 C 93 % 1008,9 hPa 0,0 l/m 0,0 km/h (0 Bft) N 0,00 h 0,000 mm 0,0 UV-I 0 W/m 13,8 C 14,9 C 0,0 km/h (0 Bft)
13.06.2015 04:00 14,5 C 94 % 1008,7 hPa 0,0 l/m 0,0 km/h (0 Bft) N 0,00 h 0,000 mm 0,0 UV-I 6 W/m 13,5 C 14,5 C 0,0 km/h (0 Bft)
13.06.2015 05:00 14,3 C 95 % 1008,5 hPa 0,0 l/m 0,0 km/h (0 Bft) N 0,00 h 0,000 mm 0,0 UV-I 13 W/m 13,5 C 14,3 C 0,0 km/h (0 Bft)
13.06.2015 06:00 15,4 C 93 % 1008,3 hPa 0,0 l/m 0,0 km/h (0 Bft) N 0,18 h 0,000 mm 0,0 UV-I 37 W/m 14,3 C 15,4 C 0,1 km/h (0 Bft)
13.06.2015 07:00 16,8 C 92 % 1008,5 hPa 0,0 l/m 0,0 km/h (0 Bft) N 1,00 h 0,025 mm 0,6 UV-I 80 W/m 15,5 C 16,8 C 0,3 km/h (0 Bft)
13.06.2015 08:00 18,2 C 89 % 1008,7 hPa 0,0 l/m 0,0 km/h (0 Bft) N 1,00 h 0,051 mm 1,2 UV-I 230 W/m 16,4 C 18,2 C 0,0 km/h (0 Bft)
13.06.2015 09:00 22,5 C 78 % 1008,5 hPa 0,0 l/m 0,0 km/h (0 Bft) N 1,00 h 0,127 mm 2,6 UV-I 494 W/m 18,4 C 22,5 C 0,4 km/h (0 Bft)
13.06.2015 10:00 25,9 C 64 % 1008,1 hPa 0,0 l/m 1,0 km/h (0 Bft) N 1,00 h 0,305 mm 3,9 UV-I 702 W/m 18,6 C 25,9 C 3,2 km/h (1 Bft)
13.06.2015 11:00 27,4 C 56 % 1007,8 hPa 0,0 l/m 2,8 km/h (1 Bft) S 1,00 h 0,457 mm 5,0 UV-I 753 W/m 17,7 C 27,4 C 6,0 km/h (2 Bft)
13.06.2015 12:00 27,1 C 51 % 1007,7 hPa 0,0 l/m 8,1 km/h (2 Bft) S 1,00 h 0,508 mm 5,1 UV-I 679 W/m 16,1 C 26,8 C 13,9 km/h (3 Bft)
13.06.2015 13:00 27,8 C 51 % 1007,4 hPa 0,0 l/m 9,3 km/h (2 Bft) W-SW 1,00 h 0,508 mm 5,6 UV-I 701 W/m 16,6 C 27,3 C 16,9 km/h (3 Bft)
13.06.2015 14:00 23,5 C 71 % 1007,6 hPa 4,4 l/m 4,4 km/h (1 Bft) W-SW 0,32 h 0,533 mm 1,1 UV-I 48 W/m 17,8 C 23,2 C 8,7 km/h (2 Bft)
13.06.2015 15:00 22,8 C 79 % 1007,8 hPa 0,0 l/m 4,2 km/h (1 Bft) W-SW 1,00 h 0,051 mm 3,5 UV-I 552 W/m 18,9 C 22,6 C 9,0 km/h (2 Bft)
13.06.2015 16:00 24,2 C 66 % 1008,0 hPa 0,0 l/m 8,5 km/h (2 Bft) W 1,00 h 0,356 mm 2,6 UV-I 431 W/m 17,6 C 23,6 C 16,9 km/h (3 Bft)
13.06.2015 17:00 24,1 C 58 % 1008,1 hPa 0,0 l/m 10,4 km/h (2 Bft) W-SW 1,00 h 0,305 mm 1,9 UV-I 359 W/m 15,4 C 23,1 C 19,9 km/h (4 Bft)
13.06.2015 18:00 22,9 C 61 % 1008,4 hPa 0,0 l/m 6,5 km/h (2 Bft) W-SW 1,00 h 0,279 mm 0,9 UV-I 148 W/m 15,0 C 22,4 C 13,5 km/h (3 Bft)
13.06.2015 19:00 22,2 C 62 % 1008,5 hPa 0,0 l/m 5,1 km/h (1 Bft) W 0,42 h 0,127 mm 0,6 UV-I 55 W/m 14,5 C 21,9 C 11,4 km/h (2 Bft)
13.06.2015 20:00 21,2 C 66 % 1008,7 hPa 0,0 l/m 2,0 km/h (1 Bft) W 0,00 h 0,076 mm 0,0 UV-I 18 W/m 14,6 C 21,2 C 5,8 km/h (2 Bft)
13.06.2015 21:00 20,0 C 70 % 1009,0 hPa 0,0 l/m 0,2 km/h (0 Bft) N 0,00 h 0,025 mm 0,0 UV-I 6 W/m 14,4 C 20,0 C 1,3 km/h (1 Bft)
13.06.2015 22:00 18,4 C 77 % 1009,4 hPa 0,0 l/m 0,0 km/h (0 Bft) N 0,00 h 0,000 mm 0,0 UV-I 0 W/m 14,2 C 18,4 C 0,0 km/h (0 Bft)
13.06.2015 23:00 16,4 C 86 % 1009,8 hPa 0,0 l/m 0,0 km/h (0 Bft) N 0,00 h 0,025 mm 0,0 UV-I 0 W/m 14,1 C 16,4 C 0,0 km/h (0 Bft)
14.06.2015 00:00 15,2 C 90 % 1010,0 hPa 0,0 l/m 0,0 km/h (0 Bft) N 0,00 h 0,000 mm 0,0 UV-I 0 W/m 13,7 C 15,2 C 0,0 km/h (0 Bft)
14.06.2015 01:00 14,4 C 93 % 1010,3 hPa 0,0 l/m 0,0 km/h (0 Bft) N 0,00 h 0,000 mm 0,0 UV-I 0 W/m 13,2 C 14,4 C 0,1 km/h (0 Bft)
14.06.2015 02:00 13,9 C 94 % 1010,4 hPa 0,0 l/m 0,0 km/h (0 Bft) N 0,00 h 0,000 mm 0,0 UV-I 0 W/m 12,9 C 13,9 C 0,0 km/h (0 Bft)
14.06.2015 03:00 13,1 C 94 % 1010,1 hPa 0,0 l/m 0,0 km/h (0 Bft) N 0,00 h 0,000 mm 0,0 UV-I 0 W/m 12,2 C 13,1 C 0,2 km/h (0 Bft)
14.06.2015 04:00 12,3 C 95 % 1009,6 hPa 0,0 l/m 0,0 km/h (0 Bft) N 0,00 h 0,000 mm 0,0 UV-I 5 W/m 11,6 C 12,3 C 0,2 km/h (0 Bft)
14.06.2015 05:00 12,0 C 96 % 1009,5 hPa 0,0 l/m 0,0 km/h (0 Bft) N 0,00 h 0,000 mm 0,0 UV-I 15 W/m 11,4 C 12,0 C 0,1 km/h (0 Bft)
14.06.2015 06:00 12,8 C 96 % 1010,0 hPa 0,0 l/m 0,0 km/h (0 Bft) N 0,63 h 0,000 mm 0,5 UV-I 56 W/m 12,1 C 12,8 C 0,0 km/h (0 Bft)
14.06.2015 07:00 14,4 C 93 % 1010,1 hPa 0,0 l/m 0,1 km/h (0 Bft) N 1,00 h 0,025 mm 0,8 UV-I 157 W/m 13,3 C 14,4 C 0,5 km/h (0 Bft)
14.06.2015 08:00 17,6 C 83 % 1010,1 hPa 0,0 l/m 0,6 km/h (0 Bft) N 1,00 h 0,076 mm 1,8 UV-I 444 W/m 14,8 C 17,6 C 1,6 km/h (1 Bft)
14.06.2015 09:00 20,3 C 72 % 1009,9 hPa 0,0 l/m 0,6 km/h (0 Bft) N 1,00 h 0,254 mm 3,0 UV-I 601 W/m 15,0 C 20,3 C 1,8 km/h (1 Bft)
14.06.2015 10:00 21,7 C 63 % 1009,6 hPa 0,0 l/m 2,3 km/h (1 Bft) SO 1,00 h 0,330 mm 3,8 UV-I 641 W/m 14,2 C 21,6 C 5,2 km/h (1 Bft)
14.06.2015 11:00 22,0 C 62 % 1009,7 hPa 0,0 l/m 2,9 km/h (1 Bft) S-SO 1,00 h 0,381 mm 4,2 UV-I 589 W/m 14,5 C 22,0 C 6,4 km/h (2 Bft)
14.06.2015 12:00 22,4 C 61 % 1009,4 hPa 0,0 l/m 1,5 km/h (1 Bft) N 1,00 h 0,356 mm 5,2 UV-I 662 W/m 14,4 C 22,4 C 3,7 km/h (1 Bft)
14.06.2015 13:00 24,2 C 55 % 1009,1 hPa 0,0 l/m 0,6 km/h (0 Bft) N 1,00 h 0,406 mm 6,5 UV-I 851 W/m 14,4 C 24,2 C 2,2 km/h (1 Bft)
14.06.2015 14:00 24,7 C 52 % 1008,7 hPa 0,0 l/m 1,0 km/h (0 Bft) N 1,00 h 0,533 mm 5,7 UV-I 834 W/m 14,1 C 24,7 C 2,8 km/h (1 Bft)
14.06.2015 15:00 25,2 C 47 % 1008,0 hPa 0,0 l/m 2,0 km/h (1 Bft) N 1,00 h 0,483 mm 4,5 UV-I 678 W/m 12,9 C 25,2 C 4,8 km/h (1 Bft)
14.06.2015 16:00 25,6 C 45 % 1007,4 hPa 0,0 l/m 1,4 km/h (1 Bft) N 1,00 h 0,432 mm 3,1 UV-I 537 W/m 12,9 C 25,6 C 3,7 km/h (1 Bft)
14.06.2015 17:00 25,0 C 47 % 1006,2 hPa 0,0 l/m 0,9 km/h (0 Bft) N 1,00 h 0,356 mm 1,7 UV-I 264 W/m 12,9 C 25,0 C 2,7 km/h (1 Bft)
14.06.2015 18:00 24,8 C 47 % 1005,7 hPa 0,0 l/m 1,9 km/h (1 Bft) N 1,00 h 0,178 mm 0,9 UV-I 88 W/m 12,7 C 24,8 C 4,4 km/h (1 Bft)
14.06.2015 19:00 24,1 C 48 % 1005,6 hPa 0,0 l/m 1,4 km/h (1 Bft) N 0,67 h 0,076 mm 0,6 UV-I 54 W/m 12,2 C 24,1 C 3,3 km/h (1 Bft)
14.06.2015 20:00 22,6 C 55 % 1005,8 hPa 0,0 l/m 0,7 km/h (0 Bft) N 0,00 h 0,051 mm 0,0 UV-I 29 W/m 13,0 C 22,6 C 2,7 km/h (1 Bft)
14.06.2015 21:00 21,3 C 61 % 1006,2 hPa 0,0 l/m 4,2 km/h (1 Bft) N 0,00 h 0,025 mm 0,0 UV-I 10 W/m 13,5 C 21,2 C 8,1 km/h (2 Bft)
14.06.2015 22:00 19,7 C 71 % 1006,9 hPa 0,0 l/m 8,9 km/h (2 Bft) N-NO 0,00 h 0,025 mm 0,0 UV-I 0 W/m 14,4 C 18,6 C 15,4 km/h (3 Bft)
14.06.2015 23:00 18,2 C 74 % 1007,3 hPa 0,0 l/m 8,9 km/h (2 Bft) N 0,00 h 0,051 mm 0,0 UV-I 0 W/m 13,4 C 17,0 C 14,1 km/h (3 Bft)
Min-Datum _ 10.06.15 14.06.15 14.06.15 - 08.06.15 - - - - - 10.06.15 09.06.15 08.06.15
_ Min-Zeit 05:55 15:13 18:59 - 00:00 - - - - - 05:56 09:31 00:00
Minimum _ 10,0 C 41 % 1005,4 hPa - 0,0 km/h (0 Bft) - - - - - 8,6 C 4,3 C 0,0 km/h (0 Bft)
Max-Datum _ 13.06.15 09.06.15 09.06.15 13.06.15 13.06.15 - 10.06.15 12.06.15 10.06.15 10.06.15 13.06.15 13.06.15 13.06.15
_ Max-Zeit 13:00 06:01 23:40 14:41 17:14 - 07:25 14:00 14:07 14:22 15:15 13:37 17:14
Maximum _ 28,1 C 97 % 1025,8 hPa 4,4 l/m 27,4 km/h
W-SW (5 Bft)
- 0,07 h 0,559 mm 7,2 UV-I 1005 W/m 20,2 C 28,1 C 37,0 km/h
W (5 Bft)
Durchschnitt _ 16,6 C 79 % 1016,8 hPa #20,0 l/m 2,8 km/h (1 Bft) N #84:30 h #19,444 mm 2,4 UV-I 261 W/m 12,6 C 16,4 C 6,4 km/h (2 Bft)